sensor_id;sensor_type;location;lat;lon;timestamp;pressure;altitude;pressure_sealevel;temperature;humidity
31403;BME280;18039;52.188;21.024;2023-02-28T00:01:33;79456.34;;;-141.45;68.19
31403;BME280;18039;52.188;21.024;2023-02-28T00:04:00;79478.66;;;-141.45;68.56
31403;BME280;18039;52.188;21.024;2023-02-28T00:06:28;79480.69;;;-141.45;68.86
31403;BME280;18039;52.188;21.024;2023-02-28T00:08:55;79476.66;;;-141.45;68.99
31403;BME280;18039;52.188;21.024;2023-02-28T00:11:23;79470.56;;;-141.45;69.12
31403;BME280;18039;52.188;21.024;2023-02-28T00:13:50;79466.50;;;-141.45;68.82
31403;BME280;18039;52.188;21.024;2023-02-28T00:16:19;79464.47;;;-141.45;68.72
31403;BME280;18039;52.188;21.024;2023-02-28T00:18:48;79468.53;;;-141.45;68.98
31403;BME280;18039;52.188;21.024;2023-02-28T00:21:17;79472.59;;;-141.45;68.64
31403;BME280;18039;52.188;21.024;2023-02-28T00:23:45;79476.66;;;-141.45;68.91
31403;BME280;18039;52.188;21.024;2023-02-28T00:26:12;79478.66;;;-141.45;69.01
31403;BME280;18039;52.188;21.024;2023-02-28T00:28:44;79484.75;;;-141.45;69.33
31403;BME280;18039;52.188;21.024;2023-02-28T00:31:11;79480.69;;;-141.45;70.11
31403;BME280;18039;52.188;21.024;2023-02-28T00:33:38;79468.53;;;-141.45;69.56
31403;BME280;18039;52.188;21.024;2023-02-28T00:36:08;79472.59;;;-141.45;69.49
31403;BME280;18039;52.188;21.024;2023-02-28T00:38:37;79472.59;;;-141.45;69.36
31403;BME280;18039;52.188;21.024;2023-02-28T00:41:05;79476.66;;;-141.45;69.52
31403;BME280;18039;52.188;21.024;2023-02-28T00:43:34;79486.78;;;-141.45;69.79
31403;BME280;18039;52.188;21.024;2023-02-28T00:46:03;79488.81;;;-141.45;70.02
31403;BME280;18039;52.188;21.024;2023-02-28T00:48:31;79488.81;;;-141.45;70.46
31403;BME280;18039;52.188;21.024;2023-02-28T00:50:58;79490.84;;;-141.45;70.20
31403;BME280;18039;52.188;21.024;2023-02-28T00:53:26;79496.94;;;-141.45;70.51
31403;BME280;18039;52.188;21.024;2023-02-28T00:55:53;79496.94;;;-141.45;70.28
31403;BME280;18039;52.188;21.024;2023-02-28T00:58:20;79498.97;;;-141.45;70.41
31403;BME280;18039;52.188;21.024;2023-02-28T01:00:47;79501.00;;;-141.45;70.87
31403;BME280;18039;52.188;21.024;2023-02-28T01:03:17;79509.09;;;-141.45;71.18
31403;BME280;18039;52.188;21.024;2023-02-28T01:05:45;79521.28;;;-141.45;71.32
31403;BME280;18039;52.188;21.024;2023-02-28T01:08:13;79517.22;;;-141.45;71.37
31403;BME280;18039;52.188;21.024;2023-02-28T01:10:40;79521.28;;;-141.45;71.75
31403;BME280;18039;52.188;21.024;2023-02-28T01:13:08;79521.28;;;-141.45;71.92
31403;BME280;18039;52.188;21.024;2023-02-28T01:15:36;79521.28;;;-141.45;72.13
31403;BME280;18039;52.188;21.024;2023-02-28T01:18:04;79529.41;;;-141.45;72.13
31403;BME280;18039;52.188;21.024;2023-02-28T01:20:31;79525.34;;;-141.45;72.51
31403;BME280;18039;52.188;21.024;2023-02-28T01:22:58;79533.44;;;-141.45;72.72
31403;BME280;18039;52.188;21.024;2023-02-28T01:25:26;79537.50;;;-141.45;72.65
31403;BME280;18039;52.188;21.024;2023-02-28T01:27:54;79539.53;;;-141.45;72.94
31403;BME280;18039;52.188;21.024;2023-02-28T01:30:21;79541.56;;;-141.45;72.75
31403;BME280;18039;52.188;21.024;2023-02-28T01:32:48;79547.66;;;-141.45;73.05
31403;BME280;18039;52.188;21.024;2023-02-28T01:35:17;79549.69;;;-141.45;73.30
31403;BME280;18039;52.188;21.024;2023-02-28T01:37:45;79553.75;;;-141.45;73.33
31403;BME280;18039;52.188;21.024;2023-02-28T01:40:12;79549.69;;;-141.45;73.57
31403;BME280;18039;52.188;21.024;2023-02-28T01:42:40;79557.78;;;-141.45;73.68
31403;BME280;18039;52.188;21.024;2023-02-28T01:47:48;79561.84;;;-141.45;73.88
31403;BME280;18039;52.188;21.024;2023-02-28T01:50:20;79565.91;;;-141.45;73.89
31403;BME280;18039;52.188;21.024;2023-02-28T01:52:51;79574.03;;;-141.45;73.92
31403;BME280;18039;52.188;21.024;2023-02-28T01:55:23;79574.03;;;-141.45;73.75
31403;BME280;18039;52.188;21.024;2023-02-28T01:58:00;79574.03;;;-141.45;73.64
31403;BME280;18039;52.188;21.024;2023-02-28T02:00:29;79574.03;;;-141.45;73.94
31403;BME280;18039;52.188;21.024;2023-02-28T02:02:59;79569.97;;;-141.45;73.80
31403;BME280;18039;52.188;21.024;2023-02-28T02:05:30;79565.91;;;-141.45;73.87
31403;BME280;18039;52.188;21.024;2023-02-28T02:08:04;79578.09;;;-141.45;74.17
31403;BME280;18039;52.188;21.024;2023-02-28T02:10:48;79565.91;;;-141.45;74.11
31403;BME280;18039;52.188;21.024;2023-02-28T02:19:15;79565.91;;;-141.45;74.39
31403;BME280;18039;52.188;21.024;2023-02-28T02:25:26;79574.03;;;-141.45;74.46
31403;BME280;18039;52.188;21.024;2023-02-28T02:31:19;79586.19;;;-141.45;74.84
31403;BME280;18039;52.188;21.024;2023-02-28T02:45:07;79586.19;;;-141.45;75.51
31403;BME280;18039;52.188;21.024;2023-02-28T02:47:37;79590.25;;;-141.45;75.36
31403;BME280;18039;52.188;21.024;2023-02-28T02:50:08;79586.19;;;-141.45;75.21
31403;BME280;18039;52.188;21.024;2023-02-28T02:52:45;79590.25;;;-141.45;75.50
31403;BME280;18039;52.188;21.024;2023-02-28T02:55:17;79598.38;;;-141.45;75.94
31403;BME280;18039;52.188;21.024;2023-02-28T02:57:51;79594.31;;;-141.45;76.02
31403;BME280;18039;52.188;21.024;2023-02-28T03:00:26;79598.38;;;-141.45;76.06
31403;BME280;18039;52.188;21.024;2023-02-28T03:02:56;79594.31;;;-141.45;76.17
31403;BME280;18039;52.188;21.024;2023-02-28T03:05:26;79594.31;;;-141.45;76.20
31403;BME280;18039;52.188;21.024;2023-02-28T03:07:55;79594.31;;;-141.45;76.18
31403;BME280;18039;52.188;21.024;2023-02-28T03:10:50;79590.25;;;-141.45;75.77
31403;BME280;18039;52.188;21.024;2023-02-28T03:21:40;79578.09;;;-141.45;75.35
31403;BME280;18039;52.188;21.024;2023-02-28T03:24:19;79576.06;;;-141.45;75.26
31403;BME280;18039;52.188;21.024;2023-02-28T03:26:57;79586.19;;;-141.45;75.37
31403;BME280;18039;52.188;21.024;2023-02-28T03:29:34;79586.19;;;-141.45;75.39
31403;BME280;18039;52.188;21.024;2023-02-28T03:34:46;79586.19;;;-141.45;75.73
31403;BME280;18039;52.188;21.024;2023-02-28T03:37:19;79594.31;;;-141.45;75.71
31403;BME280;18039;52.188;21.024;2023-02-28T03:39:59;79598.38;;;-141.45;75.84
31403;BME280;18039;52.188;21.024;2023-02-28T03:42:29;79598.38;;;-141.45;75.73
31403;BME280;18039;52.188;21.024;2023-02-28T03:45:20;79602.44;;;-141.45;75.75
31403;BME280;18039;52.188;21.024;2023-02-28T03:47:53;79602.44;;;-141.45;75.87
31403;BME280;18039;52.188;21.024;2023-02-28T03:52:55;79606.50;;;-141.45;76.06
31403;BME280;18039;52.188;21.024;2023-02-28T03:55:32;79614.59;;;-141.45;76.31
31403;BME280;18039;52.188;21.024;2023-02-28T03:58:11;79606.50;;;-141.45;76.35
31403;BME280;18039;52.188;21.024;2023-02-28T04:00:48;79618.66;;;-141.45;76.33
31403;BME280;18039;52.188;21.024;2023-02-28T04:03:16;79614.59;;;-141.45;76.68
31403;BME280;18039;52.188;21.024;2023-02-28T04:05:49;79610.53;;;-141.45;76.69
31403;BME280;18039;52.188;21.024;2023-02-28T04:08:17;79614.59;;;-141.45;76.56
31403;BME280;18039;52.188;21.024;2023-02-28T04:10:50;79626.78;;;-141.45;76.84
31403;BME280;18039;52.188;21.024;2023-02-28T04:13:18;79616.63;;;-141.45;76.91
31403;BME280;18039;52.188;21.024;2023-02-28T04:15:45;79618.66;;;-141.45;76.85
31403;BME280;18039;52.188;21.024;2023-02-28T04:18:13;79610.53;;;-141.45;77.04
31403;BME280;18039;52.188;21.024;2023-02-28T04:20:41;79622.72;;;-141.45;76.85
31403;BME280;18039;52.188;21.024;2023-02-28T04:23:08;79624.75;;;-141.45;77.04
31403;BME280;18039;52.188;21.024;2023-02-28T04:25:35;79626.78;;;-141.45;77.00
31403;BME280;18039;52.188;21.024;2023-02-28T04:28:02;79622.72;;;-141.45;76.75
31403;BME280;18039;52.188;21.024;2023-02-28T04:30:30;79622.72;;;-141.45;76.85
31403;BME280;18039;52.188;21.024;2023-02-28T04:33:01;79630.84;;;-141.45;76.76
31403;BME280;18039;52.188;21.024;2023-02-28T04:35:29;79630.84;;;-141.45;76.81
31403;BME280;18039;52.188;21.024;2023-02-28T04:37:56;79634.88;;;-141.45;77.17
31403;BME280;18039;52.188;21.024;2023-02-28T04:40:23;79632.88;;;-141.45;77.06
31403;BME280;18039;52.188;21.024;2023-02-28T04:42:50;79638.94;;;-141.45;77.18
31403;BME280;18039;52.188;21.024;2023-02-28T04:45:17;79632.88;;;-141.45;77.12
31403;BME280;18039;52.188;21.024;2023-02-28T04:47:44;79634.88;;;-141.45;77.43
31403;BME280;18039;52.188;21.024;2023-02-28T04:50:12;79632.88;;;-141.45;77.12
31403;BME280;18039;52.188;21.024;2023-02-28T04:52:39;79630.84;;;-141.45;77.47
31403;BME280;18039;52.188;21.024;2023-02-28T04:55:06;79643.00;;;-141.45;77.56
31403;BME280;18039;52.188;21.024;2023-02-28T04:57:34;79630.84;;;-141.45;77.35
31403;BME280;18039;52.188;21.024;2023-02-28T05:00:01;79630.84;;;-141.45;77.44
31403;BME280;18039;52.188;21.024;2023-02-28T05:02:34;79643.00;;;-141.45;77.55
31403;BME280;18039;52.188;21.024;2023-02-28T05:05:02;79643.00;;;-141.45;77.68
31403;BME280;18039;52.188;21.024;2023-02-28T05:07:29;79647.06;;;-141.45;77.67
31403;BME280;18039;52.188;21.024;2023-02-28T05:09:56;79645.03;;;-141.45;77.82
31403;BME280;18039;52.188;21.024;2023-02-28T05:12:23;79643.00;;;-141.45;77.62
31403;BME280;18039;52.188;21.024;2023-02-28T05:14:50;79659.25;;;-141.45;77.83
31403;BME280;18039;52.188;21.024;2023-02-28T05:17:17;79647.06;;;-141.45;78.06
31403;BME280;18039;52.188;21.024;2023-02-28T05:19:45;79659.25;;;-141.45;77.90
31403;BME280;18039;52.188;21.024;2023-02-28T05:22:14;79663.28;;;-141.45;78.01
31403;BME280;18039;52.188;21.024;2023-02-28T05:24:42;79661.28;;;-141.45;78.25
31403;BME280;18039;52.188;21.024;2023-02-28T05:27:09;79655.19;;;-141.45;78.54
31403;BME280;18039;52.188;21.024;2023-02-28T05:29:37;79667.34;;;-141.45;78.44
31403;BME280;18039;52.188;21.024;2023-02-28T05:32:09;79663.28;;;-141.45;78.51
31403;BME280;18039;52.188;21.024;2023-02-28T05:34:38;79659.25;;;-141.45;78.37
31403;BME280;18039;52.188;21.024;2023-02-28T05:37:10;79657.22;;;-141.45;78.32
31403;BME280;18039;52.188;21.024;2023-02-28T05:39:38;79675.47;;;-141.45;78.45
31403;BME280;18039;52.188;21.024;2023-02-28T05:42:05;79659.25;;;-141.45;78.45
31403;BME280;18039;52.188;21.024;2023-02-28T05:44:33;79655.19;;;-141.45;78.40
31403;BME280;18039;52.188;21.024;2023-02-28T05:47:01;79651.13;;;-141.45;78.39
31403;BME280;18039;52.188;21.024;2023-02-28T05:49:28;79645.03;;;-141.45;78.55
31403;BME280;18039;52.188;21.024;2023-02-28T05:51:55;79643.00;;;-141.45;78.54
31403;BME280;18039;52.188;21.024;2023-02-28T05:54:23;79614.59;;;-141.45;78.47
31403;BME280;18039;52.188;21.024;2023-02-28T05:56:50;79622.72;;;-141.45;78.20
31403;BME280;18039;52.188;21.024;2023-02-28T05:59:17;79614.59;;;-141.45;78.17
31403;BME280;18039;52.188;21.024;2023-02-28T06:01:46;79618.66;;;-141.45;78.27
31403;BME280;18039;52.188;21.024;2023-02-28T06:04:19;79606.50;;;-141.45;78.11
31403;BME280;18039;52.188;21.024;2023-02-28T06:06:58;79598.38;;;-141.45;77.65
31403;BME280;18039;52.188;21.024;2023-02-28T06:09:25;79594.31;;;-141.45;77.67
31403;BME280;18039;52.188;21.024;2023-02-28T06:11:53;79590.25;;;-141.45;77.45
31403;BME280;18039;52.188;21.024;2023-02-28T06:14:21;79578.09;;;-141.45;77.14
31403;BME280;18039;52.188;21.024;2023-02-28T06:16:48;79578.09;;;-141.45;77.17
31403;BME280;18039;52.188;21.024;2023-02-28T06:19:16;79569.97;;;-141.45;77.19
31403;BME280;18039;52.188;21.024;2023-02-28T06:21:44;79561.84;;;-141.45;76.94
31403;BME280;18039;52.188;21.024;2023-02-28T06:24:12;79549.69;;;-141.45;76.50
31403;BME280;18039;52.188;21.024;2023-02-28T06:26:39;79529.41;;;-141.45;76.51
31403;BME280;18039;52.188;21.024;2023-02-28T06:29:07;79537.50;;;-141.45;76.22
31403;BME280;18039;52.188;21.024;2023-02-28T06:31:34;79533.44;;;-141.45;76.25
31403;BME280;18039;52.188;21.024;2023-02-28T06:34:02;79525.34;;;-141.45;75.86
31403;BME280;18039;52.188;21.024;2023-02-28T06:36:29;79529.41;;;-141.45;75.50
31403;BME280;18039;52.188;21.024;2023-02-28T06:38:57;79501.00;;;-141.45;75.36
31403;BME280;18039;52.188;21.024;2023-02-28T06:41:25;79484.75;;;-141.45;74.27
31403;BME280;18039;52.188;21.024;2023-02-28T06:43:55;79476.66;;;-141.45;74.76
31403;BME280;18039;52.188;21.024;2023-02-28T06:46:22;79470.56;;;-141.45;74.92
31403;BME280;18039;52.188;21.024;2023-02-28T06:48:50;79452.28;;;-141.45;73.35
31403;BME280;18039;52.188;21.024;2023-02-28T06:51:20;79448.25;;;-141.45;73.20
31403;BME280;18039;52.188;21.024;2023-02-28T06:53:50;79415.78;;;-141.45;73.50
31403;BME280;18039;52.188;21.024;2023-02-28T06:56:18;79411.72;;;-141.45;72.45
31403;BME280;18039;52.188;21.024;2023-02-28T06:58:49;79399.53;;;-141.45;72.77
31403;BME280;18039;52.188;21.024;2023-02-28T07:01:17;79379.25;;;-141.45;72.86
31403;BME280;18039;52.188;21.024;2023-02-28T07:03:45;79348.81;;;-141.45;72.04
31403;BME280;18039;52.188;21.024;2023-02-28T07:06:13;79342.75;;;-141.45;71.47
31403;BME280;18039;52.188;21.024;2023-02-28T07:08:40;79342.75;;;-141.45;71.31
31403;BME280;18039;52.188;21.024;2023-02-28T07:11:07;79306.22;;;-141.45;70.71
31403;BME280;18039;52.188;21.024;2023-02-28T07:13:36;79334.63;;;-141.45;70.54
31403;BME280;18039;52.188;21.024;2023-02-28T07:16:05;79330.56;;;-141.45;70.29
31403;BME280;18039;52.188;21.024;2023-02-28T07:18:33;79326.50;;;-141.45;69.90
31403;BME280;18039;52.188;21.024;2023-02-28T07:21:05;79306.22;;;-141.45;69.46
31403;BME280;18039;52.188;21.024;2023-02-28T07:23:33;79302.16;;;-141.45;69.13
31403;BME280;18039;52.188;21.024;2023-02-28T07:26:01;79290.00;;;-141.45;68.74
31403;BME280;18039;52.188;21.024;2023-02-28T07:28:29;79269.72;;;-141.45;68.72
31403;BME280;18039;52.188;21.024;2023-02-28T07:30:56;79245.38;;;-141.45;68.88
31403;BME280;18039;52.188;21.024;2023-02-28T07:33:24;79249.41;;;-141.45;68.50
31403;BME280;18039;52.188;21.024;2023-02-28T07:35:51;79277.81;;;-141.45;67.92
31403;BME280;18039;52.188;21.024;2023-02-28T07:38:18;79231.16;;;-141.45;67.21
31403;BME280;18039;52.188;21.024;2023-02-28T07:40:45;79229.13;;;-141.45;66.91
31403;BME280;18039;52.188;21.024;2023-02-28T07:43:12;79229.13;;;-141.45;66.18
31403;BME280;18039;52.188;21.024;2023-02-28T07:45:39;79229.13;;;-141.45;65.76
31403;BME280;18039;52.188;21.024;2023-02-28T07:48:07;79229.13;;;-141.45;65.42
31403;BME280;18039;52.188;21.024;2023-02-28T07:50:37;79216.97;;;-141.45;65.70
31403;BME280;18039;52.188;21.024;2023-02-28T07:53:04;79210.88;;;-141.45;64.67
31403;BME280;18039;52.188;21.024;2023-02-28T07:55:32;79200.72;;;-141.45;64.66
31403;BME280;18039;52.188;21.024;2023-02-28T07:57:59;79192.63;;;-141.45;63.42
31403;BME280;18039;52.188;21.024;2023-02-28T08:00:28;79204.78;;;-141.45;62.97
31403;BME280;18039;52.188;21.024;2023-02-28T08:02:56;79192.63;;;-141.45;62.50
31403;BME280;18039;52.188;21.024;2023-02-28T08:05:23;79192.63;;;-141.45;61.92
31403;BME280;18039;52.188;21.024;2023-02-28T08:07:50;79192.63;;;-141.45;62.40
31403;BME280;18039;52.188;21.024;2023-02-28T08:10:18;79180.44;;;-141.45;61.89
31403;BME280;18039;52.188;21.024;2023-02-28T08:12:45;79168.28;;;-141.45;61.78
31403;BME280;18039;52.188;21.024;2023-02-28T08:15:12;79160.16;;;-141.45;61.86
31403;BME280;18039;52.188;21.024;2023-02-28T08:17:40;79154.06;;;-141.45;60.80
31403;BME280;18039;52.188;21.024;2023-02-28T08:20:07;79141.91;;;-141.45;60.98
31403;BME280;18039;52.188;21.024;2023-02-28T08:22:36;79135.81;;;-141.45;60.75
31403;BME280;18039;52.188;21.024;2023-02-28T08:25:03;79123.66;;;-141.45;60.33
31403;BME280;18039;52.188;21.024;2023-02-28T08:27:31;79115.53;;;-141.45;59.96
31403;BME280;18039;52.188;21.024;2023-02-28T08:29:59;79103.38;;;-141.45;59.91
31403;BME280;18039;52.188;21.024;2023-02-28T08:32:26;79103.38;;;-141.45;58.64
31403;BME280;18039;52.188;21.024;2023-02-28T08:34:56;79103.38;;;-141.45;58.64
31403;BME280;18039;52.188;21.024;2023-02-28T08:37:24;79111.47;;;-141.45;58.09
31403;BME280;18039;52.188;21.024;2023-02-28T08:39:51;79107.41;;;-141.45;58.67
31403;BME280;18039;52.188;21.024;2023-02-28T08:42:23;79107.41;;;-141.45;58.93
31403;BME280;18039;52.188;21.024;2023-02-28T08:44:50;79101.34;;;-141.45;58.67
31403;BME280;18039;52.188;21.024;2023-02-28T08:47:18;79107.41;;;-141.45;58.89
31403;BME280;18039;52.188;21.024;2023-02-28T08:49:45;79091.19;;;-141.45;58.82
31403;BME280;18039;52.188;21.024;2023-02-28T08:52:13;79095.25;;;-141.45;58.63
31403;BME280;18039;52.188;21.024;2023-02-28T08:54:41;79091.19;;;-141.45;58.18
31403;BME280;18039;52.188;21.024;2023-02-28T08:57:08;79081.06;;;-141.45;57.81
31403;BME280;18039;52.188;21.024;2023-02-28T08:59:35;79087.13;;;-141.45;57.98
31403;BME280;18039;52.188;21.024;2023-02-28T09:02:03;79083.06;;;-141.45;57.67
31403;BME280;18039;52.188;21.024;2023-02-28T09:04:30;79085.09;;;-141.45;58.11
31403;BME280;18039;52.188;21.024;2023-02-28T09:06:58;79091.19;;;-141.45;57.65
31403;BME280;18039;52.188;21.024;2023-02-28T09:09:25;79079.03;;;-141.45;57.66
31403;BME280;18039;52.188;21.024;2023-02-28T09:11:55;79079.03;;;-141.45;57.22
31403;BME280;18039;52.188;21.024;2023-02-28T09:14:22;79066.84;;;-141.45;57.64
31403;BME280;18039;52.188;21.024;2023-02-28T09:16:51;79050.63;;;-141.45;57.30
31403;BME280;18039;52.188;21.024;2023-02-28T09:19:19;79050.63;;;-141.45;56.72
31403;BME280;18039;52.188;21.024;2023-02-28T09:21:46;79074.97;;;-141.45;57.23
31403;BME280;18039;52.188;21.024;2023-02-28T09:24:13;79030.34;;;-141.45;57.50
31403;BME280;18039;52.188;21.024;2023-02-28T09:26:42;79036.41;;;-141.45;56.26
31403;BME280;18039;52.188;21.024;2023-02-28T09:29:22;79046.56;;;-141.45;55.73
31403;BME280;18039;52.188;21.024;2023-02-28T09:31:49;79050.63;;;-141.45;55.89
31403;BME280;18039;52.188;21.024;2023-02-28T09:34:17;79046.56;;;-141.45;56.44
31403;BME280;18039;52.188;21.024;2023-02-28T09:36:44;79026.28;;;-141.45;56.63
31403;BME280;18039;52.188;21.024;2023-02-28T09:39:13;79014.09;;;-141.45;56.68
31403;BME280;18039;52.188;21.024;2023-02-28T09:41:45;79003.97;;;-141.45;56.19
31403;BME280;18039;52.188;21.024;2023-02-28T09:44:42;78991.78;;;-141.45;56.41
31403;BME280;18039;52.188;21.024;2023-02-28T09:47:17;78985.72;;;-141.45;56.21
31403;BME280;18039;52.188;21.024;2023-02-28T09:49:47;78977.59;;;-141.45;56.13
31403;BME280;18039;52.188;21.024;2023-02-28T09:52:31;78971.50;;;-141.45;56.08
31403;BME280;18039;52.188;21.024;2023-02-28T09:55:30;78945.13;;;-141.45;55.85
31403;BME280;18039;52.188;21.024;2023-02-28T09:58:33;78941.06;;;-141.45;54.35
31403;BME280;18039;52.188;21.024;2023-02-28T10:03:42;78928.91;;;-141.45;54.48
31403;BME280;18039;52.188;21.024;2023-02-28T10:06:22;78920.78;;;-141.45;54.84
31403;BME280;18039;52.188;21.024;2023-02-28T10:11:29;78916.75;;;-141.45;54.06
31403;BME280;18039;52.188;21.024;2023-02-28T10:14:20;78908.63;;;-141.45;54.46
31403;BME280;18039;52.188;21.024;2023-02-28T10:16:53;78896.44;;;-141.45;53.56
31403;BME280;18039;52.188;21.024;2023-02-28T10:19:28;78896.44;;;-141.45;53.28
31403;BME280;18039;52.188;21.024;2023-02-28T10:22:03;78894.44;;;-141.45;53.41
31403;BME280;18039;52.188;21.024;2023-02-28T10:27:23;78884.28;;;-141.45;53.22
31403;BME280;18039;52.188;21.024;2023-02-28T10:29:53;78876.16;;;-141.45;53.05
31403;BME280;18039;52.188;21.024;2023-02-28T10:32:32;78872.09;;;-141.45;53.49
31403;BME280;18039;52.188;21.024;2023-02-28T10:37:40;78855.88;;;-141.45;53.01
31403;BME280;18039;52.188;21.024;2023-02-28T10:40:31;78855.88;;;-141.45;53.27
31403;BME280;18039;52.188;21.024;2023-02-28T10:43:18;78847.78;;;-141.45;53.12
31403;BME280;18039;52.188;21.024;2023-02-28T10:48:41;78839.66;;;-141.45;52.75
31403;BME280;18039;52.188;21.024;2023-02-28T10:51:14;78841.69;;;-141.45;52.82
31403;BME280;18039;52.188;21.024;2023-02-28T10:53:49;78841.69;;;-141.45;53.11
31403;BME280;18039;52.188;21.024;2023-02-28T10:56:28;78825.47;;;-141.45;53.45
31403;BME280;18039;52.188;21.024;2023-02-28T11:01:44;78821.41;;;-141.45;52.29
31403;BME280;18039;52.188;21.024;2023-02-28T11:07:00;78795.03;;;-141.45;52.85
31403;BME280;18039;52.188;21.024;2023-02-28T11:09:37;78782.84;;;-141.45;52.91
31403;BME280;18039;52.188;21.024;2023-02-28T11:12:07;78786.91;;;-141.45;52.48
31403;BME280;18039;52.188;21.024;2023-02-28T11:14:49;78774.75;;;-141.45;52.80
31403;BME280;18039;52.188;21.024;2023-02-28T11:17:26;78766.63;;;-141.45;52.08
31403;BME280;18039;52.188;21.024;2023-02-28T11:19:58;78760.56;;;-141.45;52.50
31403;BME280;18039;52.188;21.024;2023-02-28T11:22:29;78766.63;;;-141.45;51.28
31403;BME280;18039;52.188;21.024;2023-02-28T11:25:07;78758.53;;;-141.45;51.30
31403;BME280;18039;52.188;21.024;2023-02-28T11:30:25;78746.34;;;-141.45;51.39
31403;BME280;18039;52.188;21.024;2023-02-28T11:32:57;78774.75;;;-141.45;52.46
31403;BME280;18039;52.188;21.024;2023-02-28T11:35:36;78770.69;;;-141.45;52.66
31403;BME280;18039;52.188;21.024;2023-02-28T11:38:12;78770.69;;;-141.45;52.13
31403;BME280;18039;52.188;21.024;2023-02-28T11:41:05;78758.53;;;-141.45;52.05
31403;BME280;18039;52.188;21.024;2023-02-28T11:49:43;78689.56;;;-141.45;51.99
31403;BME280;18039;52.188;21.024;2023-02-28T12:06:52;78667.25;;;-141.45;51.23
31403;BME280;18039;52.188;21.024;2023-02-28T12:27:19;78624.66;;;-141.45;51.78
31403;BME280;18039;52.188;21.024;2023-02-28T12:30:00;78618.56;;;-141.45;51.79
31403;BME280;18039;52.188;21.024;2023-02-28T12:32:42;78604.38;;;-141.45;50.33
31403;BME280;18039;52.188;21.024;2023-02-28T12:35:16;78608.44;;;-141.45;50.21
31403;BME280;18039;52.188;21.024;2023-02-28T12:37:56;78616.53;;;-141.45;50.19
31403;BME280;18039;52.188;21.024;2023-02-28T12:40:54;78634.78;;;-141.45;50.52
31403;BME280;18039;52.188;21.024;2023-02-28T12:43:28;78649.00;;;-141.45;50.96
31403;BME280;18039;52.188;21.024;2023-02-28T12:46:25;78628.72;;;-141.45;51.31
31403;BME280;18039;52.188;21.024;2023-02-28T12:49:00;78624.66;;;-141.45;50.98
31403;BME280;18039;52.188;21.024;2023-02-28T12:51:36;78616.53;;;-141.45;50.31
31403;BME280;18039;52.188;21.024;2023-02-28T12:54:24;78620.59;;;-141.45;50.21
31403;BME280;18039;52.188;21.024;2023-02-28T12:59:50;78616.53;;;-141.45;50.20
31403;BME280;18039;52.188;21.024;2023-02-28T13:11:25;78580.03;;;-141.45;50.36
31403;BME280;18039;52.188;21.024;2023-02-28T13:14:04;78571.91;;;-141.45;49.88
31403;BME280;18039;52.188;21.024;2023-02-28T13:24:56;78541.50;;;-141.45;48.72
31403;BME280;18039;52.188;21.024;2023-02-28T13:27:41;78533.38;;;-141.45;49.01
31403;BME280;18039;52.188;21.024;2023-02-28T13:33:36;78539.47;;;-141.45;49.22
31403;BME280;18039;52.188;21.024;2023-02-28T13:38:51;78523.25;;;-141.45;49.17
31403;BME280;18039;52.188;21.024;2023-02-28T13:44:09;78515.13;;;-141.45;49.27
31403;BME280;18039;52.188;21.024;2023-02-28T13:51:54;78498.91;;;-141.45;49.15
31403;BME280;18039;52.188;21.024;2023-02-28T13:57:35;78486.72;;;-141.45;50.07
31403;BME280;18039;52.188;21.024;2023-02-28T14:03:23;78478.63;;;-141.45;49.86
31403;BME280;18039;52.188;21.024;2023-02-28T14:11:34;78474.56;;;-141.45;49.36
31403;BME280;18039;52.188;21.024;2023-02-28T14:14:41;78474.56;;;-141.45;49.58
31403;BME280;18039;52.188;21.024;2023-02-28T14:16:58;78478.63;;;-141.45;49.50
31403;BME280;18039;52.188;21.024;2023-02-28T14:19:30;78468.47;;;-141.45;49.82
31403;BME280;18039;52.188;21.024;2023-02-28T14:30:37;78486.72;;;-141.45;49.75
31403;BME280;18039;52.188;21.024;2023-02-28T14:36:17;78490.78;;;-141.45;50.39
31403;BME280;18039;52.188;21.024;2023-02-28T14:38:52;78494.84;;;-141.45;50.79
31403;BME280;18039;52.188;21.024;2023-02-28T14:44:03;78498.91;;;-141.45;50.30
31403;BME280;18039;52.188;21.024;2023-02-28T14:46:45;78498.91;;;-141.45;50.91
31403;BME280;18039;52.188;21.024;2023-02-28T14:52:02;78500.94;;;-141.45;51.13
31403;BME280;18039;52.188;21.024;2023-02-28T14:54:31;78494.84;;;-141.45;51.73
31403;BME280;18039;52.188;21.024;2023-02-28T14:57:02;78504.97;;;-141.45;51.85
31403;BME280;18039;52.188;21.024;2023-02-28T14:59:35;78498.91;;;-141.45;51.39
31403;BME280;18039;52.188;21.024;2023-02-28T15:02:19;78507.00;;;-141.45;51.85
31403;BME280;18039;52.188;21.024;2023-02-28T15:04:59;78507.00;;;-141.45;51.76
31403;BME280;18039;52.188;21.024;2023-02-28T15:07:31;78519.19;;;-141.45;51.36
31403;BME280;18039;52.188;21.024;2023-02-28T15:10:25;78535.41;;;-141.45;51.57
31403;BME280;18039;52.188;21.024;2023-02-28T15:13:02;78535.41;;;-141.45;51.39
31403;BME280;18039;52.188;21.024;2023-02-28T15:18:51;78547.56;;;-141.45;52.91
31403;BME280;18039;52.188;21.024;2023-02-28T15:21:22;78555.69;;;-141.45;53.04
31403;BME280;18039;52.188;21.024;2023-02-28T15:27:12;78580.03;;;-141.45;54.25
31403;BME280;18039;52.188;21.024;2023-02-28T15:29:53;78588.13;;;-141.45;54.37
31403;BME280;18039;52.188;21.024;2023-02-28T15:32:28;78592.19;;;-141.45;55.03
31403;BME280;18039;52.188;21.024;2023-02-28T15:38:01;78620.59;;;-141.45;54.85
31403;BME280;18039;52.188;21.024;2023-02-28T15:40:41;78620.59;;;-141.45;54.75
31403;BME280;18039;52.188;21.024;2023-02-28T15:43:18;78620.59;;;-141.45;55.45
31403;BME280;18039;52.188;21.024;2023-02-28T15:46:01;78640.88;;;-141.45;55.36